Time;durP1;ratioP1;P1;durP2;ratioP2;P2;SDS_P1;SDS_P2;PMS_P1;PMS_P2;Temp;Humidity;BMP_temperature;BMP_pressure;BME280_temperature;BME280_humidity;BME280_pressure;Samples;Min_cycle;Max_cycle;Signal;HPM_P1;HPM_P2
2023/03/03 00:00:52;;;;;;;29.15;22.00;;;;;;;;;;6069115;23;20025;-91
2023/03/03 00:03:22;;;;;;;33.10;21.23;;;;;;;;;;6068465;23;20374;-90
2023/03/03 00:05:50;;;;;;;24.33;18.13;;;;;;;;;;6069453;23;20034;-90
2023/03/03 00:08:18;;;;;;;29.33;21.52;;;;;;;;;;6092620;23;20473;-91
2023/03/03 00:10:47;;;;;;;31.02;20.65;;;;;;;;;;6068936;23;20014;-91
2023/03/03 00:13:18;;;;;;;29.15;23.48;;;;;;;;;;6091752;23;20022;-91
2023/03/03 00:15:48;;;;;;;34.97;21.08;;;;;;;;;;6069160;23;20071;-91
2023/03/03 00:18:23;;;;;;;30.67;21.80;;;;;;;;;;6067412;23;20025;-91
2023/03/03 00:20:55;;;;;;;31.77;22.38;;;;;;;;;;6069010;23;20022;-91
2023/03/03 00:23:36;;;;;;;25.73;20.85;;;;;;;;;;6092682;23;20019;-90
2023/03/03 00:26:16;;;;;;;22.85;20.02;;;;;;;;;;6091612;23;20614;-90
2023/03/03 00:28:46;;;;;;;29.88;22.75;;;;;;;;;;6068997;23;20014;-90
2023/03/03 00:31:17;;;;;;;26.02;19.00;;;;;;;;;;6068901;23;20030;-90
2023/03/03 00:33:49;;;;;;;23.90;17.95;;;;;;;;;;6068104;23;20015;-90
2023/03/03 00:36:30;;;;;;;30.95;18.45;;;;;;;;;;6069163;23;20026;-90
2023/03/03 00:39:00;;;;;;;25.33;19.80;;;;;;;;;;6069038;23;20332;-90
2023/03/03 00:41:28;;;;;;;22.88;19.13;;;;;;;;;;6093869;23;20473;-91
2023/03/03 00:43:57;;;;;;;25.48;19.95;;;;;;;;;;6069189;23;20470;-91
2023/03/03 00:46:24;;;;;;;23.23;19.38;;;;;;;;;;6093449;23;20021;-90
2023/03/03 00:48:52;;;;;;;31.23;19.63;;;;;;;;;;6069349;23;20458;-90
2023/03/03 00:51:30;;;;;;;27.27;20.65;;;;;;;;;;6069325;23;20022;-91
2023/03/03 00:53:58;;;;;;;27.52;21.58;;;;;;;;;;6099704;23;20018;-91
2023/03/03 00:56:26;;;;;;;31.58;19.35;;;;;;;;;;6068997;23;20022;-91
2023/03/03 00:58:57;;;;;;;18.80;15.93;;;;;;;;;;6070264;23;20026;-90
2023/03/03 01:01:27;;;;;;;24.45;18.45;;;;;;;;;;6069414;23;20026;-90
2023/03/03 01:03:55;;;;;;;24.13;17.48;;;;;;;;;;6069411;23;20018;-91
2023/03/03 01:06:22;;;;;;;24.40;18.33;;;;;;;;;;6070027;23;20026;-90
2023/03/03 01:08:50;;;;;;;21.80;16.80;;;;;;;;;;6095339;23;20071;-90
2023/03/03 01:11:22;;;;;;;23.38;15.80;;;;;;;;;;6071386;23;20041;-90
2023/03/03 01:13:51;;;;;;;20.15;14.15;;;;;;;;;;6071016;23;20034;-90
2023/03/03 01:16:20;;;;;;;23.52;15.30;;;;;;;;;;6097449;23;20025;-90
2023/03/03 01:18:51;;;;;;;21.52;15.60;;;;;;;;;;6097823;23;20290;-90
2023/03/03 01:21:20;;;;;;;26.80;16.65;;;;;;;;;;6096328;23;20034;-90
2023/03/03 01:23:48;;;;;;;27.35;16.48;;;;;;;;;;6073242;23;20014;-90
2023/03/03 01:26:15;;;;;;;32.78;14.13;;;;;;;;;;6070659;23;20072;-90
2023/03/03 01:28:43;;;;;;;19.60;13.88;;;;;;;;;;6071983;23;20530;-90
2023/03/03 01:31:11;;;;;;;23.23;14.13;;;;;;;;;;6072905;23;20029;-91
2023/03/03 01:33:42;;;;;;;23.95;13.48;;;;;;;;;;6072665;23;20022;-91
2023/03/03 01:36:10;;;;;;;17.50;13.05;;;;;;;;;;6072386;23;20030;-91
2023/03/03 01:38:38;;;;;;;17.75;13.38;;;;;;;;;;6093642;23;20022;-90
2023/03/03 01:41:05;;;;;;;15.82;13.00;;;;;;;;;;6069784;23;20065;-90
2023/03/03 01:43:33;;;;;;;21.63;13.70;;;;;;;;;;6068205;23;20022;-90
2023/03/03 01:46:41;;;;;;;19.05;13.48;;;;;;;;;;6069435;23;20019;-90
2023/03/03 01:49:16;;;;;;;16.83;12.75;;;;;;;;;;6005612;23;20031;-90
2023/03/03 01:51:48;;;;;;;19.33;13.15;;;;;;;;;;6055021;23;20489;-90
2023/03/03 01:54:20;;;;;;;22.92;15.60;;;;;;;;;;6068053;23;20015;-90
2023/03/03 01:56:49;;;;;;;17.50;13.10;;;;;;;;;;6102953;23;20014;-90
2023/03/03 01:59:19;;;;;;;22.27;15.10;;;;;;;;;;6068544;23;20015;-90
2023/03/03 02:01:47;;;;;;;18.23;13.43;;;;;;;;;;6091945;23;20010;-91
2023/03/03 02:04:16;;;;;;;19.77;14.25;;;;;;;;;;6067586;23;20026;-90
2023/03/03 02:06:47;;;;;;;16.15;12.88;;;;;;;;;;6065154;23;20482;-90
2023/03/03 02:09:22;;;;;;;19.52;14.20;;;;;;;;;;6067061;23;20018;-89
2023/03/03 02:11:54;;;;;;;19.33;14.38;;;;;;;;;;6066252;23;20026;-90
2023/03/03 02:14:21;;;;;;;13.50;10.40;;;;;;;;;;6067574;23;20022;-90
2023/03/03 02:16:49;;;;;;;17.85;12.85;;;;;;;;;;6091589;23;20019;-90
2023/03/03 02:19:22;;;;;;;17.15;13.23;;;;;;;;;;6092050;23;20041;-90
2023/03/03 02:21:50;;;;;;;21.63;12.80;;;;;;;;;;6066579;23;20022;-91
2023/03/03 02:24:26;;;;;;;18.83;12.82;;;;;;;;;;6091421;23;20482;-90
2023/03/03 02:26:55;;;;;;;13.43;11.18;;;;;;;;;;6092434;23;20019;-90
2023/03/03 02:29:23;;;;;;;19.55;13.07;;;;;;;;;;6067549;23;20025;-90
2023/03/03 02:31:51;;;;;;;15.73;11.93;;;;;;;;;;6067162;23;20414;-90
2023/03/03 02:34:18;;;;;;;14.60;11.23;;;;;;;;;;6064779;23;20022;-90
2023/03/03 02:36:49;;;;;;;19.15;13.10;;;;;;;;;;6067913;23;20014;-90
2023/03/03 02:39:22;;;;;;;21.63;12.75;;;;;;;;;;6068240;23;20019;-90
2023/03/03 02:41:54;;;;;;;13.40;10.63;;;;;;;;;;6102895;23;20010;-90
2023/03/03 02:44:29;;;;;;;19.05;11.45;;;;;;;;;;6092436;23;20018;-90
2023/03/03 02:46:57;;;;;;;16.95;13.40;;;;;;;;;;6068129;23;20014;-90
2023/03/03 02:49:27;;;;;;;13.95;12.10;;;;;;;;;;6068489;23;20019;-90
2023/03/03 02:51:55;;;;;;;20.77;12.43;;;;;;;;;;6066672;23;20023;-90
2023/03/03 02:54:29;;;;;;;16.33;13.73;;;;;;;;;;6067700;23;20019;-90
2023/03/03 02:56:59;;;;;;;17.98;13.95;;;;;;;;;;6091001;23;20022;-89
2023/03/03 02:59:33;;;;;;;19.83;15.68;;;;;;;;;;6068218;23;20026;-90
2023/03/03 03:02:07;;;;;;;17.77;12.50;;;;;;;;;;6066697;23;20018;-90
2023/03/03 03:04:35;;;;;;;12.85;10.88;;;;;;;;;;6067286;23;20029;-90
2023/03/03 03:07:03;;;;;;;19.23;13.25;;;;;;;;;;6092804;23;20018;-90
2023/03/03 03:09:34;;;;;;;23.08;12.27;;;;;;;;;;6067353;23;20022;-90
2023/03/03 03:12:02;;;;;;;17.58;12.15;;;;;;;;;;6067172;23;20025;-91
2023/03/03 03:14:35;;;;;;;17.20;12.10;;;;;;;;;;6066471;23;20497;-90
2023/03/03 03:17:03;;;;;;;19.00;13.10;;;;;;;;;;6067140;23;20018;-90
2023/03/03 03:19:33;;;;;;;18.05;13.52;;;;;;;;;;6092330;23;20029;-90
2023/03/03 03:22:03;;;;;;;20.15;11.60;;;;;;;;;;6069773;23;20354;-90
2023/03/03 03:24:32;;;;;;;17.40;12.15;;;;;;;;;;6069449;23;20026;-90
2023/03/03 03:27:03;;;;;;;18.95;13.82;;;;;;;;;;6070261;23;20025;-90
2023/03/03 03:29:31;;;;;;;13.75;11.60;;;;;;;;;;6069859;23;20026;-90
2023/03/03 03:32:00;;;;;;;18.90;11.60;;;;;;;;;;6069257;23;20018;-90
2023/03/03 03:34:27;;;;;;;20.25;13.57;;;;;;;;;;6069367;23;20018;-90
2023/03/03 03:36:56;;;;;;;13.73;10.43;;;;;;;;;;6092285;23;20014;-90
2023/03/03 03:39:28;;;;;;;17.38;13.85;;;;;;;;;;6047386;23;20018;-90
2023/03/03 03:41:56;;;;;;;20.15;12.23;;;;;;;;;;6068885;23;20018;-89
2023/03/03 03:44:24;;;;;;;15.25;12.10;;;;;;;;;;6069280;23;20500;-90
2023/03/03 03:46:52;;;;;;;19.65;14.00;;;;;;;;;;6068493;23;20635;-90
2023/03/03 03:49:21;;;;;;;18.13;13.48;;;;;;;;;;6069163;23;20022;-90
2023/03/03 03:51:50;;;;;;;21.17;13.57;;;;;;;;;;6069523;23;20025;-91
2023/03/03 03:54:20;;;;;;;16.45;12.90;;;;;;;;;;6070345;23;20479;-90
2023/03/03 03:56:49;;;;;;;17.02;10.80;;;;;;;;;;6069420;23;20040;-90
2023/03/03 03:59:18;;;;;;;30.00;13.63;;;;;;;;;;6070526;23;20018;-90
2023/03/03 04:01:46;;;;;;;16.73;11.13;;;;;;;;;;6092101;23;20019;-90
2023/03/03 04:04:14;;;;;;;23.30;14.10;;;;;;;;;;6094284;23;20021;-91
2023/03/03 04:06:44;;;;;;;21.73;13.00;;;;;;;;;;6069170;23;20022;-91
2023/03/03 04:09:12;;;;;;;21.83;14.35;;;;;;;;;;6094566;23;20510;-91
2023/03/03 04:11:39;;;;;;;19.10;13.82;;;;;;;;;;6093493;23;20511;-91
2023/03/03 04:14:08;;;;;;;15.85;12.43;;;;;;;;;;6070006;23;20018;-91
2023/03/03 04:16:36;;;;;;;22.02;15.15;;;;;;;;;;6069537;23;20473;-91
2023/03/03 04:19:04;;;;;;;18.23;13.75;;;;;;;;;;6069202;23;20362;-91
2023/03/03 04:21:33;;;;;;;19.38;14.10;;;;;;;;;;6090740;23;20029;-91
2023/03/03 04:24:04;;;;;;;18.85;12.90;;;;;;;;;;6069433;23;20019;-91
2023/03/03 04:26:32;;;;;;;19.05;15.13;;;;;;;;;;6069289;23;20499;-91
2023/03/03 04:29:03;;;;;;;17.20;12.15;;;;;;;;;;6102521;23;20354;-91
2023/03/03 04:31:31;;;;;;;17.45;13.68;;;;;;;;;;6068453;23;20018;-91
2023/03/03 04:33:59;;;;;;;19.23;12.98;;;;;;;;;;6069301;23;20018;-92
2023/03/03 04:36:27;;;;;;;19.77;13.90;;;;;;;;;;6069137;23;20022;-92
2023/03/03 04:38:54;;;;;;;15.25;12.57;;;;;;;;;;6069038;23;20018;-91
2023/03/03 04:41:23;;;;;;;19.80;12.88;;;;;;;;;;6067932;23;20490;-90
2023/03/03 04:43:50;;;;;;;19.95;12.93;;;;;;;;;;6092352;23;20033;-93
2023/03/03 04:46:18;;;;;;;18.98;13.45;;;;;;;;;;6068426;23;20042;-93
2023/03/03 04:48:45;;;;;;;18.77;12.55;;;;;;;;;;6093430;23;20041;-92
2023/03/03 04:51:15;;;;;;;21.60;15.10;;;;;;;;;;6067156;23;20021;-91
2023/03/03 04:53:43;;;;;;;20.15;13.20;;;;;;;;;;6069016;23;20018;-93
2023/03/03 04:56:11;;;;;;;15.20;12.32;;;;;;;;;;6093517;23;20014;-92
2023/03/03 04:58:40;;;;;;;18.55;13.40;;;;;;;;;;6070094;23;20019;-92
2023/03/03 05:01:08;;;;;;;16.95;12.80;;;;;;;;;;6068794;23;20030;-91
2023/03/03 05:03:35;;;;;;;21.08;12.63;;;;;;;;;;6068566;23;20018;-92
2023/03/03 05:06:03;;;;;;;21.85;15.27;;;;;;;;;;6093500;23;20049;-91
2023/03/03 05:08:30;;;;;;;19.33;13.23;;;;;;;;;;6093515;23;20018;-92
2023/03/03 05:10:58;;;;;;;23.95;14.43;;;;;;;;;;6069126;23;20540;-92
2023/03/03 05:13:29;;;;;;;17.15;12.23;;;;;;;;;;6070841;23;20018;-92
2023/03/03 05:15:58;;;;;;;19.10;13.27;;;;;;;;;;6077016;23;20498;-91
2023/03/03 05:18:26;;;;;;;19.85;14.05;;;;;;;;;;6054401;23;20471;-92
2023/03/03 05:20:56;;;;;;;16.40;12.75;;;;;;;;;;6077488;23;20030;-91
2023/03/03 05:23:23;;;;;;;20.75;13.70;;;;;;;;;;6074316;23;20019;-92
2023/03/03 05:25:51;;;;;;;19.55;11.00;;;;;;;;;;6093483;23;20019;-92
2023/03/03 05:28:18;;;;;;;17.88;12.50;;;;;;;;;;6068550;23;20033;-92
2023/03/03 05:30:48;;;;;;;18.48;13.80;;;;;;;;;;6069754;23;20022;-92
2023/03/03 05:33:17;;;;;;;19.30;12.85;;;;;;;;;;6067753;23;20029;-92
2023/03/03 05:35:45;;;;;;;14.13;11.23;;;;;;;;;;6069211;23;20021;-94
2023/03/03 05:38:15;;;;;;;18.35;12.13;;;;;;;;;;6068730;23;20026;-91
2023/03/03 05:40:43;;;;;;;17.52;12.88;;;;;;;;;;6092052;23;20018;-92
2023/03/03 05:43:13;;;;;;;15.02;10.82;;;;;;;;;;6068248;23;20018;-92
2023/03/03 05:45:41;;;;;;;22.85;14.02;;;;;;;;;;6092599;23;20018;-91
2023/03/03 05:48:09;;;;;;;18.80;11.85;;;;;;;;;;6069481;23;20470;-92
2023/03/03 05:50:38;;;;;;;18.45;13.95;;;;;;;;;;6093046;23;20347;-92
2023/03/03 05:53:05;;;;;;;27.42;16.65;;;;;;;;;;6066045;23;20023;-91
2023/03/03 05:55:33;;;;;;;19.00;13.18;;;;;;;;;;6067893;23;20018;-91
2023/03/03 05:58:02;;;;;;;19.23;12.90;;;;;;;;;;6068726;23;20021;-92
2023/03/03 06:00:34;;;;;;;20.27;14.13;;;;;;;;;;6068936;23;20022;-91
2023/03/03 06:03:01;;;;;;;18.98;13.90;;;;;;;;;;6067584;23;20022;-91
2023/03/03 06:05:28;;;;;;;17.58;13.85;;;;;;;;;;6068769;23;20015;-91
2023/03/03 06:07:58;;;;;;;19.88;12.55;;;;;;;;;;6069705;23;20025;-91
2023/03/03 06:10:26;;;;;;;17.42;11.57;;;;;;;;;;6068754;23;20591;-92
2023/03/03 06:12:57;;;;;;;16.88;12.60;;;;;;;;;;6069709;23;20022;-91
2023/03/03 06:15:25;;;;;;;25.13;14.90;;;;;;;;;;6070899;23;20022;-91
2023/03/03 06:17:54;;;;;;;19.02;13.60;;;;;;;;;;6071166;23;20018;-91
2023/03/03 06:20:21;;;;;;;20.27;14.70;;;;;;;;;;6071504;23;20030;-91
2023/03/03 06:22:49;;;;;;;18.88;13.07;;;;;;;;;;6071560;23;20377;-91
2023/03/03 06:25:18;;;;;;;23.15;14.70;;;;;;;;;;6054079;23;20034;-91
2023/03/03 06:27:48;;;;;;;18.75;14.27;;;;;;;;;;6080966;23;20366;-89
2023/03/03 06:30:17;;;;;;;19.00;13.15;;;;;;;;;;6074646;23;20026;-89
2023/03/03 06:32:45;;;;;;;19.70;13.77;;;;;;;;;;6079781;23;20029;-89
2023/03/03 06:35:12;;;;;;;23.00;13.43;;;;;;;;;;6094010;23;20021;-90
2023/03/03 06:37:42;;;;;;;20.95;13.48;;;;;;;;;;6097115;23;20017;-89
2023/03/03 06:40:10;;;;;;;22.33;13.80;;;;;;;;;;6096892;23;20513;-89
2023/03/03 06:42:39;;;;;;;17.55;13.63;;;;;;;;;;6088784;23;20021;-90
2023/03/03 06:45:07;;;;;;;19.85;13.95;;;;;;;;;;6087417;23;20026;-89
2023/03/03 06:47:35;;;;;;;21.10;15.00;;;;;;;;;;6094905;23;20014;-90
2023/03/03 06:50:02;;;;;;;20.35;14.25;;;;;;;;;;6097688;23;20096;-89
2023/03/03 06:52:29;;;;;;;25.83;14.60;;;;;;;;;;6122172;23;20062;-90
2023/03/03 06:54:58;;;;;;;15.05;12.85;;;;;;;;;;6097471;23;20078;-90
2023/03/03 06:57:27;;;;;;;18.73;13.35;;;;;;;;;;6114123;23;20023;-90
2023/03/03 07:00:10;;;;;;;20.20;14.75;;;;;;;;;;6077664;23;20022;-90
2023/03/03 07:02:38;;;;;;;26.15;15.50;;;;;;;;;;6072570;23;20036;-91
2023/03/03 07:05:07;;;;;;;25.50;19.33;;;;;;;;;;6094639;23;20015;-90
2023/03/03 07:07:34;;;;;;;20.05;15.77;;;;;;;;;;6071632;23;20014;-90
2023/03/03 07:10:08;;;;;;;21.27;15.05;;;;;;;;;;6093491;23;20022;-91
2023/03/03 07:12:38;;;;;;;23.48;16.13;;;;;;;;;;6068329;23;20346;-90
2023/03/03 07:15:16;;;;;;;29.52;18.60;;;;;;;;;;6068813;23;20022;-91
2023/03/03 07:17:48;;;;;;;28.00;18.45;;;;;;;;;;6072833;23;20041;-91
2023/03/03 07:20:21;;;;;;;25.80;17.52;;;;;;;;;;6092426;23;20022;-90
2023/03/03 07:22:48;;;;;;;24.02;19.83;;;;;;;;;;6068245;23;20509;-91
2023/03/03 07:25:22;;;;;;;27.70;18.10;;;;;;;;;;6068266;23;20025;-91
2023/03/03 07:27:53;;;;;;;27.38;19.98;;;;;;;;;;6068556;23;20022;-91
2023/03/03 07:30:25;;;;;;;27.42;24.63;;;;;;;;;;6067201;23;20019;-91
2023/03/03 07:32:55;;;;;;;21.90;14.68;;;;;;;;;;6067492;23;20027;-92
2023/03/03 07:35:35;;;;;;;26.88;16.65;;;;;;;;;;6091380;23;20018;-92
2023/03/03 07:38:03;;;;;;;24.52;15.93;;;;;;;;;;6067538;23;20025;-91
2023/03/03 07:40:36;;;;;;;23.17;14.73;;;;;;;;;;6068130;23;20045;-91
2023/03/03 07:43:22;;;;;;;18.70;14.80;;;;;;;;;;6068194;23;20019;-91
2023/03/03 07:45:51;;;;;;;18.65;13.55;;;;;;;;;;6067419;23;20026;-91
2023/03/03 07:48:31;;;;;;;22.42;16.17;;;;;;;;;;6068469;23;20026;-91
2023/03/03 07:51:03;;;;;;;26.85;17.77;;;;;;;;;;6066419;23;20023;-91
2023/03/03 07:53:33;;;;;;;21.48;17.48;;;;;;;;;;6067618;23;20023;-91
2023/03/03 07:56:01;;;;;;;22.33;14.93;;;;;;;;;;6068543;23;20470;-92
2023/03/03 07:58:37;;;;;;;22.80;16.50;;;;;;;;;;6067762;23;20015;-92
2023/03/03 08:01:27;;;;;;;20.73;15.50;;;;;;;;;;6091634;23;20025;-91
2023/03/03 08:03:55;;;;;;;22.38;15.82;;;;;;;;;;6067963;23;20022;-91
2023/03/03 08:06:32;;;;;;;18.83;14.10;;;;;;;;;;6068300;23;20021;-92
2023/03/03 08:09:03;;;;;;;17.58;14.90;;;;;;;;;;6070535;23;20026;-92
2023/03/03 08:11:30;;;;;;;25.98;15.93;;;;;;;;;;6068444;23;20026;-92
2023/03/03 08:13:59;;;;;;;23.05;16.27;;;;;;;;;;6046118;23;20520;-92
2023/03/03 08:16:37;;;;;;;30.10;18.48;;;;;;;;;;6069085;23;20478;-92
2023/03/03 08:19:08;;;;;;;28.83;18.75;;;;;;;;;;6092792;23;20022;-92
2023/03/03 08:21:39;;;;;;;25.20;19.85;;;;;;;;;;6069819;23;20022;-93
2023/03/03 08:24:07;;;;;;;29.27;18.40;;;;;;;;;;6070393;23;20045;-92
2023/03/03 08:26:34;;;;;;;28.80;18.95;;;;;;;;;;6046530;23;20025;-92
2023/03/03 08:29:02;;;;;;;31.42;20.75;;;;;;;;;;6070060;23;20018;-92
2023/03/03 08:31:34;;;;;;;30.80;20.98;;;;;;;;;;6071108;23;20018;-92
2023/03/03 08:34:03;;;;;;;31.48;18.45;;;;;;;;;;6093493;23;20018;-93
2023/03/03 08:36:30;;;;;;;29.00;20.63;;;;;;;;;;6069804;23;20026;-92
2023/03/03 08:38:58;;;;;;;28.25;17.48;;;;;;;;;;6070109;23;20358;-92
2023/03/03 08:41:25;;;;;;;24.55;15.88;;;;;;;;;;6070161;23;20019;-92
2023/03/03 08:43:53;;;;;;;20.25;13.70;;;;;;;;;;6070028;23;20493;-92
2023/03/03 08:46:25;;;;;;;24.30;15.77;;;;;;;;;;6093439;23;20019;-92
2023/03/03 08:48:54;;;;;;;22.17;15.57;;;;;;;;;;6069203;23;20033;-91
2023/03/03 08:51:22;;;;;;;23.15;16.85;;;;;;;;;;6093255;23;20033;-92
2023/03/03 08:53:52;;;;;;;21.88;13.93;;;;;;;;;;6093230;23;20042;-92
2023/03/03 08:56:20;;;;;;;20.13;14.32;;;;;;;;;;6069722;23;20022;-93
2023/03/03 08:58:48;;;;;;;21.25;15.55;;;;;;;;;;6069650;23;20455;-92
2023/03/03 09:01:16;;;;;;;19.38;15.48;;;;;;;;;;6068470;23;20369;-92
2023/03/03 09:03:47;;;;;;;22.25;14.68;;;;;;;;;;6092096;23;20019;-91
2023/03/03 09:06:16;;;;;;;20.35;14.52;;;;;;;;;;6093358;23;20030;-92
2023/03/03 09:08:44;;;;;;;19.75;14.15;;;;;;;;;;6070201;23;20466;-92
2023/03/03 09:11:12;;;;;;;20.30;13.70;;;;;;;;;;6068689;23;20018;-92
2023/03/03 09:13:40;;;;;;;22.35;15.30;;;;;;;;;;6093430;23;20107;-92
2023/03/03 09:16:13;;;;;;;23.63;14.48;;;;;;;;;;6069403;23;20022;-92
2023/03/03 09:18:42;;;;;;;20.65;14.10;;;;;;;;;;6069655;23;20022;-92
2023/03/03 09:21:21;;;;;;;26.80;14.80;;;;;;;;;;6068320;23;20384;-92
2023/03/03 09:23:54;;;;;;;22.33;16.02;;;;;;;;;;6069647;23;20493;-91
2023/03/03 09:26:36;;;;;;;23.83;17.17;;;;;;;;;;6046400;23;20019;-93
2023/03/03 09:29:17;;;;;;;28.23;16.38;;;;;;;;;;6069221;23;20262;-92
2023/03/03 09:31:50;;;;;;;24.63;16.63;;;;;;;;;;6068440;23;20026;-92
2023/03/03 09:34:23;;;;;;;24.63;16.10;;;;;;;;;;6068642;23;20018;-91
2023/03/03 09:36:53;;;;;;;26.52;17.25;;;;;;;;;;6069567;23;20038;-92
2023/03/03 09:39:23;;;;;;;23.92;16.65;;;;;;;;;;6093696;23;20477;-92
2023/03/03 09:42:08;;;;;;;23.38;15.45;;;;;;;;;;6068424;23;20025;-92
2023/03/03 09:45:03;;;;;;;27.55;16.83;;;;;;;;;;6069400;23;20497;-92
2023/03/03 09:47:52;;;;;;;27.35;17.48;;;;;;;;;;6065835;23;20018;-91
2023/03/03 09:50:28;;;;;;;24.52;16.55;;;;;;;;;;6048738;23;20019;-92
2023/03/03 09:53:06;;;;;;;21.08;14.73;;;;;;;;;;6069420;23;20018;-92
2023/03/03 09:55:43;;;;;;;28.63;16.02;;;;;;;;;;6044985;23;20019;-92
2023/03/03 09:58:24;;;;;;;21.80;16.67;;;;;;;;;;6047355;23;20025;-92
2023/03/03 10:00:59;;;;;;;23.65;17.65;;;;;;;;;;6069275;23;20029;-92
2023/03/03 10:03:54;;;;;;;25.00;16.60;;;;;;;;;;6094213;23;20023;-93
2023/03/03 10:06:29;;;;;;;64.68;17.63;;;;;;;;;;6070341;23;20470;-93
2023/03/03 10:09:35;;;;;;;24.88;15.75;;;;;;;;;;6069764;23;20025;-92
2023/03/03 10:12:06;;;;;;;24.38;15.40;;;;;;;;;;6068145;23;20029;-93
2023/03/03 10:14:53;;;;;;;22.33;15.27;;;;;;;;;;6070758;23;20022;-92
2023/03/03 10:17:31;;;;;;;23.27;16.08;;;;;;;;;;6064991;23;20023;-91
2023/03/03 10:20:14;;;;;;;25.25;14.88;;;;;;;;;;6070249;23;20027;-92
2023/03/03 10:22:48;;;;;;;25.88;17.23;;;;;;;;;;6069088;23;20023;-92
2023/03/03 10:25:26;;;;;;;26.63;14.18;;;;;;;;;;6068032;23;20533;-92
2023/03/03 10:28:20;;;;;;;21.63;15.02;;;;;;;;;;6068704;23;20018;-92
2023/03/03 10:30:55;;;;;;;24.77;16.33;;;;;;;;;;6063725;23;20026;-92
2023/03/03 10:33:25;;;;;;;22.23;15.75;;;;;;;;;;6067939;23;20018;-91
2023/03/03 10:36:08;;;;;;;27.05;16.30;;;;;;;;;;6068325;23;20018;-92
2023/03/03 10:38:45;;;;;;;21.40;15.30;;;;;;;;;;6070126;23;20018;-92
2023/03/03 10:41:32;;;;;;;23.17;14.88;;;;;;;;;;6069115;23;20033;-92
2023/03/03 10:44:09;;;;;;;35.72;15.98;;;;;;;;;;6069421;23;20026;-92
2023/03/03 10:46:45;;;;;;;23.10;16.38;;;;;;;;;;6103471;23;20620;-92
2023/03/03 10:49:20;;;;;;;26.58;15.90;;;;;;;;;;6067010;23;20589;-93
2023/03/03 10:51:59;;;;;;;28.67;15.52;;;;;;;;;;6068790;23;20019;-93
2023/03/03 10:54:42;;;;;;;22.58;17.23;;;;;;;;;;6068486;23;20018;-93
2023/03/03 10:57:15;;;;;;;24.65;16.27;;;;;;;;;;6068007;23;20025;-92
2023/03/03 10:59:50;;;;;;;;;;;;;;;;;;6067666;23;20037;-92
2023/03/03 11:02:22;;;;;;;24.15;15.77;;;;;;;;;;6067857;23;20257;-92
2023/03/03 11:05:10;;;;;;;29.88;17.15;;;;;;;;;;6068064;23;20029;-92
2023/03/03 11:07:42;;;;;;;22.98;16.65;;;;;;;;;;6045365;23;20015;-93
2023/03/03 11:10:25;;;;;;;27.45;17.88;;;;;;;;;;6067368;23;20478;-92
2023/03/03 11:13:09;;;;;;;29.63;18.23;;;;;;;;;;6067721;23;20023;-92
2023/03/03 11:15:44;;;;;;;23.88;17.15;;;;;;;;;;6068672;23;20363;-93
2023/03/03 11:18:19;;;;;;;22.63;16.70;;;;;;;;;;6069371;23;20022;-92
2023/03/03 11:20:55;;;;;;;22.65;15.88;;;;;;;;;;6091664;23;20339;-92
2023/03/03 11:23:34;;;;;;;31.40;17.52;;;;;;;;;;6067807;23;20473;-92
2023/03/03 11:26:09;;;;;;;23.30;17.77;;;;;;;;;;6068032;23;20474;-92
2023/03/03 11:28:53;;;;;;;23.10;16.33;;;;;;;;;;6068607;23;20022;-93
2023/03/03 11:31:24;;;;;;;25.85;16.92;;;;;;;;;;6092182;23;20018;-93
2023/03/03 11:34:01;;;;;;;29.02;16.92;;;;;;;;;;6068932;23;20023;-93
2023/03/03 11:36:33;;;;;;;27.27;18.65;;;;;;;;;;6092789;23;20021;-93
2023/03/03 11:39:04;;;;;;;26.85;18.60;;;;;;;;;;6068866;23;20018;-93
2023/03/03 11:41:36;;;;;;;24.73;19.10;;;;;;;;;;6069083;23;20374;-92
2023/03/03 11:44:14;;;;;;;23.90;17.00;;;;;;;;;;6099638;23;20015;-93
2023/03/03 11:46:46;;;;;;;25.88;17.98;;;;;;;;;;6068715;23;20029;-92
2023/03/03 11:49:21;;;;;;;23.33;16.50;;;;;;;;;;6094267;23;20026;-92
2023/03/03 11:52:00;;;;;;;29.33;18.98;;;;;;;;;;6094297;23;20015;-93
2023/03/03 11:54:36;;;;;;;24.75;17.13;;;;;;;;;;6070972;23;20018;-92
2023/03/03 11:57:15;;;;;;;26.77;18.23;;;;;;;;;;6118036;23;20023;-93
2023/03/03 11:59:50;;;;;;;27.92;17.95;;;;;;;;;;6070276;23;20025;-93
2023/03/03 12:02:48;;;;;;;30.70;17.48;;;;;;;;;;6067052;23;20493;-93
2023/03/03 12:05:29;;;;;;;24.25;17.15;;;;;;;;;;6067984;23;20030;-92
2023/03/03 12:08:04;;;;;;;25.52;19.40;;;;;;;;;;6070483;23;20025;-93
2023/03/03 12:10:34;;;;;;;23.25;17.58;;;;;;;;;;6070091;23;20029;-92
2023/03/03 12:13:04;;;;;;;25.42;18.52;;;;;;;;;;6070011;23;20027;-92
2023/03/03 12:15:41;;;;;;;20.63;16.85;;;;;;;;;;6069142;23;20034;-92
2023/03/03 12:18:50;;;;;;;24.75;16.95;;;;;;;;;;6068080;23;20015;-92
2023/03/03 12:21:32;;;;;;;28.65;18.65;;;;;;;;;;6092707;23;20014;-92
2023/03/03 12:24:12;;;;;;;23.65;17.48;;;;;;;;;;6094635;23;20021;-92
2023/03/03 12:26:47;;;;;;;23.88;18.17;;;;;;;;;;6070216;23;20022;-91
2023/03/03 12:29:27;;;;;;;29.45;19.00;;;;;;;;;;6070022;23;20026;-91
2023/03/03 12:32:02;;;;;;;29.40;18.60;;;;;;;;;;6069258;23;20018;-92
2023/03/03 12:34:35;;;;;;;21.83;19.02;;;;;;;;;;6070941;23;20014;-92
2023/03/03 12:37:22;;;;;;;29.77;19.55;;;;;;;;;;6070762;23;20025;-91
2023/03/03 12:39:57;;;;;;;28.45;19.05;;;;;;;;;;6070585;23;20014;-91
2023/03/03 12:42:35;;;;;;;29.80;21.85;;;;;;;;;;6068636;23;20015;-92
2023/03/03 12:45:11;;;;;;;25.92;20.42;;;;;;;;;;6093510;23;20018;-92
2023/03/03 12:47:58;;;;;;;25.83;18.92;;;;;;;;;;6070864;23;20023;-92
2023/03/03 12:50:33;;;;;;;29.83;18.27;;;;;;;;;;6069172;23;20018;-92
2023/03/03 12:53:05;;;;;;;33.40;21.10;;;;;;;;;;6068803;23;20025;-92
2023/03/03 12:55:44;;;;;;;29.02;20.42;;;;;;;;;;6070694;23;20018;-91
2023/03/03 12:58:22;;;;;;;30.52;19.85;;;;;;;;;;6070166;23;20015;-91
2023/03/03 13:00:55;;;;;;;26.10;19.98;;;;;;;;;;6068493;23;20019;-92
2023/03/03 13:03:33;;;;;;;26.70;19.77;;;;;;;;;;6068692;23;20026;-91
2023/03/03 13:06:07;;;;;;;24.20;17.38;;;;;;;;;;6069539;23;20018;-92
2023/03/03 13:08:50;;;;;;;30.75;22.15;;;;;;;;;;6069712;23;20022;-92
2023/03/03 13:11:33;;;;;;;29.95;19.40;;;;;;;;;;6069712;23;20031;-92
2023/03/03 13:14:14;;;;;;;30.35;19.90;;;;;;;;;;6069867;23;20029;-92
2023/03/03 13:16:45;;;;;;;29.98;19.55;;;;;;;;;;6069713;23;20363;-92
2023/03/03 13:19:17;;;;;;;30.20;20.50;;;;;;;;;;6071891;23;20026;-93
2023/03/03 13:21:53;;;;;;;31.67;21.83;;;;;;;;;;6049894;23;20022;-93
2023/03/03 13:24:26;;;;;;;26.85;19.80;;;;;;;;;;6094699;23;20025;-92
2023/03/03 13:26:56;;;;;;;27.17;20.02;;;;;;;;;;6094608;23;20018;-92
2023/03/03 13:29:28;;;;;;;29.23;20.15;;;;;;;;;;6069940;23;20462;-92
2023/03/03 13:32:03;;;;;;;31.17;22.33;;;;;;;;;;6045884;23;20014;-92
2023/03/03 13:34:41;;;;;;;31.42;21.38;;;;;;;;;;6094415;23;20240;-92
2023/03/03 13:37:22;;;;;;;35.03;21.60;;;;;;;;;;6093815;23;20021;-92
2023/03/03 13:40:07;;;;;;;36.40;21.77;;;;;;;;;;6069389;23;20370;-92
2023/03/03 13:42:40;;;;;;;31.00;21.13;;;;;;;;;;6070091;23;20022;-92
2023/03/03 13:45:18;;;;;;;26.08;20.55;;;;;;;;;;6092004;23;20022;-92
2023/03/03 13:47:51;;;;;;;27.80;20.33;;;;;;;;;;6069295;23;20022;-92
2023/03/03 13:50:53;;;;;;;27.13;21.27;;;;;;;;;;6068067;23;20018;-91
2023/03/03 13:53:35;;;;;;;28.73;20.27;;;;;;;;;;6091520;23;20842;-92
2023/03/03 13:56:11;;;;;;;28.55;21.63;;;;;;;;;;6067880;23;20493;-92
2023/03/03 13:58:45;;;;;;;31.67;20.92;;;;;;;;;;6069070;23;20018;-92
2023/03/03 14:01:18;;;;;;;26.77;20.23;;;;;;;;;;6092577;23;20076;-91
2023/03/03 14:03:54;;;;;;;28.60;20.25;;;;;;;;;;6068775;23;20019;-92
2023/03/03 14:06:25;;;;;;;30.95;20.58;;;;;;;;;;6068318;23;20022;-92
2023/03/03 14:09:01;;;;;;;26.25;20.42;;;;;;;;;;6091422;23;20025;-92
2023/03/03 14:11:36;;;;;;;25.60;18.42;;;;;;;;;;6067028;23;20019;-92
2023/03/03 14:14:09;;;;;;;26.80;19.23;;;;;;;;;;6068072;23;20052;-91
2023/03/03 14:16:46;;;;;;;26.08;18.15;;;;;;;;;;6067436;23;20022;-91
2023/03/03 14:19:16;;;;;;;30.20;21.35;;;;;;;;;;6068264;23;20045;-92
2023/03/03 14:21:50;;;;;;;32.28;22.23;;;;;;;;;;6067620;23;20026;-92
2023/03/03 14:24:20;;;;;;;52.15;31.65;;;;;;;;;;6095611;23;20033;-91
2023/03/03 14:26:48;;;;;;;27.33;20.02;;;;;;;;;;6090113;23;20287;-91
2023/03/03 14:29:29;;;;;;;27.23;19.88;;;;;;;;;;6068413;23;20014;-92
2023/03/03 14:31:57;;;;;;;31.05;22.05;;;;;;;;;;6066707;23;20018;-91
2023/03/03 14:34:39;;;;;;;23.90;18.40;;;;;;;;;;6069433;23;20014;-92
2023/03/03 14:37:22;;;;;;;30.08;18.60;;;;;;;;;;6068326;23;20022;-92
2023/03/03 14:40:01;;;;;;;24.60;19.55;;;;;;;;;;6102397;23;20011;-92
2023/03/03 14:42:34;;;;;;;25.83;18.83;;;;;;;;;;6066740;23;20026;-92
2023/03/03 14:45:05;;;;;;;29.23;20.33;;;;;;;;;;6067138;23;20025;-92
2023/03/03 14:47:34;;;;;;;45.35;19.15;;;;;;;;;;6067921;23;20022;-92
2023/03/03 14:50:02;;;;;;;27.73;19.27;;;;;;;;;;6093037;23;20016;-92